Time;durP1;ratioP1;P1;durP2;ratioP2;P2;SDS_P1;SDS_P2;PMS_P1;PMS_P2;Temp;Humidity;BMP_temperature;BMP_pressure;BME280_temperature;BME280_humidity;BME280_pressure;Samples;Min_cycle;Max_cycle;Signal;HPM_P1;HPM_P2
2022/11/29 00:01:19;;;;;;;50.15;20.08;;;;;;;3.88;83.90;100523.50;4509238;31;34317;-77
2022/11/29 00:03:46;;;;;;;53.05;20.77;;;;;;;4.25;82.06;100519.72;4513709;31;33715;-74
2022/11/29 00:06:16;;;;;;;52.40;20.40;;;;;;;3.93;83.95;100522.22;4515200;31;33837;-73
2022/11/29 00:08:44;;;;;;;55.33;21.10;;;;;;;3.85;84.47;100518.13;4516129;31;34374;-73
2022/11/29 00:14:08;;;;;;;50.95;20.52;;;;;;;4.28;82.87;100516.50;4513002;31;34459;-73
2022/11/29 00:16:36;;;;;;;48.97;19.77;;;;;;;4.33;82.56;100510.09;4508408;31;33873;-75
2022/11/29 00:19:04;;;;;;;50.60;20.65;;;;;;;4.35;82.27;100508.53;4506808;31;33273;-74
2022/11/29 00:21:31;;;;;;;50.12;20.20;;;;;;;4.01;83.23;100505.78;4509614;31;34284;-74
2022/11/29 00:23:59;;;;;;;49.22;19.80;;;;;;;4.19;83.03;100495.25;4502425;31;32229;-75
2022/11/29 00:26:26;;;;;;;53.75;19.65;;;;;;;3.73;85.18;100498.41;4508526;31;33980;-74
2022/11/29 00:28:54;;;;;;;53.15;21.15;;;;;;;4.22;83.09;100495.50;4512360;31;33708;-74
2022/11/29 00:31:31;;;;;;;55.10;21.12;;;;;;;4.02;84.09;100492.22;4509658;31;33298;-73
2022/11/29 00:34:02;;;;;;;50.55;20.60;;;;;;;4.30;83.05;100499.56;4515167;31;33642;-73
2022/11/29 00:36:29;;;;;;;51.60;20.40;;;;;;;3.93;84.61;100491.47;4509563;31;34373;-74
2022/11/29 00:38:57;;;;;;;46.97;19.00;;;;;;;4.09;83.96;100493.59;4511497;31;34643;-75
2022/11/29 00:41:25;;;;;;;51.75;18.92;;;;;;;4.32;82.73;100492.91;4515978;31;33034;-76
2022/11/29 00:43:52;;;;;;;53.72;19.00;;;;;;;4.21;82.84;100492.06;4502978;31;33794;-75
2022/11/29 00:46:20;;;;;;;50.50;19.00;;;;;;;4.00;83.95;100498.88;4508836;31;33318;-75
2022/11/29 00:48:47;;;;;;;51.20;20.42;;;;;;;3.78;85.68;100493.66;4509149;31;33601;-74
2022/11/29 00:51:15;;;;;;;47.50;18.15;;;;;;;3.82;85.38;100493.12;4507571;31;33450;-74
2022/11/29 00:53:42;;;;;;;48.78;18.75;;;;;;;4.29;83.84;100495.22;4510258;31;33602;-72
2022/11/29 00:56:10;;;;;;;55.47;20.05;;;;;;;4.45;83.06;100489.66;4507275;31;33526;-75
2022/11/29 00:58:37;;;;;;;48.92;18.52;;;;;;;4.25;83.96;100490.59;4507631;31;34590;-74
2022/11/29 01:01:05;;;;;;;60.72;20.10;;;;;;;4.57;82.43;100487.16;4508352;31;33507;-74
2022/11/29 01:03:33;;;;;;;50.22;19.83;;;;;;;4.45;82.33;100479.41;4507204;31;33781;-73
2022/11/29 01:06:06;;;;;;;51.60;20.23;;;;;;;4.48;82.52;100475.41;4507339;31;34140;-75
2022/11/29 01:08:33;;;;;;;47.17;18.75;;;;;;;4.55;81.99;100475.91;4510119;31;34970;-75
2022/11/29 01:11:09;;;;;;;46.85;18.95;;;;;;;4.48;82.67;100466.78;4507876;31;34357;-74
2022/11/29 01:13:37;;;;;;;;;;;;;;;4.20;83.99;100484.22;4509149;31;34058;-72
2022/11/29 01:16:05;;;;;;;49.35;20.75;;;;;;;4.19;83.62;100484.97;4504171;31;35641;-73
2022/11/29 01:18:33;;;;;;;52.95;23.12;;;;;;;4.34;83.22;100475.97;4507753;31;33712;-76
2022/11/29 01:21:03;;;;;;;61.10;23.08;;;;;;;4.20;83.56;100491.91;4515597;31;34171;-75
2022/11/29 01:23:31;;;;;;;53.25;21.50;;;;;;;4.20;83.64;100484.22;4506966;31;33959;-75
2022/11/29 01:26:01;;;;;;;55.97;20.70;;;;;;;4.45;82.25;100472.59;4506963;31;33737;-76
2022/11/29 01:28:29;;;;;;;51.70;19.55;;;;;;;4.29;83.91;100482.41;4514144;31;33811;-75
2022/11/29 01:30:57;;;;;;;56.30;19.65;;;;;;;4.47;82.56;100475.28;4502868;31;33444;-77
2022/11/29 01:33:24;;;;;;;45.20;18.33;;;;;;;4.39;82.56;100482.38;4515089;31;34022;-73
2022/11/29 01:35:53;;;;;;;44.85;17.95;;;;;;;4.00;84.35;100482.59;4510741;31;33627;-75
2022/11/29 01:38:21;;;;;;;47.90;18.30;;;;;;;4.10;83.79;100475.78;4509116;31;33320;-75
2022/11/29 01:41:12;;;;;;;49.28;18.05;;;;;;;4.10;83.74;100475.78;4515858;31;34233;-76
2022/11/29 01:44:11;;;;;;;46.92;17.85;;;;;;;4.30;84.08;100466.22;4506661;31;34177;-75
2022/11/29 01:46:40;;;;;;;48.45;19.17;;;;;;;4.05;84.62;100465.94;4510201;31;34901;-76
2022/11/29 01:49:17;;;;;;;45.58;18.35;;;;;;;4.07;84.46;100469.50;4514173;31;33692;-71
2022/11/29 01:51:48;;;;;;;45.05;18.58;;;;;;;4.16;84.05;100467.69;4504560;31;34539;-74
2022/11/29 01:54:16;;;;;;;47.20;17.17;;;;;;;4.21;83.49;100463.84;4514028;31;33821;-76
2022/11/29 01:56:46;;;;;;;45.25;17.67;;;;;;;3.66;86.05;100474.72;4502976;31;33526;-74
2022/11/29 01:59:16;;;;;;;44.60;16.48;;;;;;;3.64;86.27;100472.00;4503314;31;33925;-73
2022/11/29 02:01:44;;;;;;;40.88;16.60;;;;;;;3.71;85.86;100474.31;4507177;31;33308;-73
2022/11/29 02:04:12;;;;;;;42.58;16.12;;;;;;;4.01;84.96;100472.47;4512671;31;33866;-73
2022/11/29 02:06:40;;;;;;;43.50;17.25;;;;;;;4.14;83.48;100474.37;4514757;31;34010;-73
2022/11/29 02:09:19;;;;;;;47.88;18.15;;;;;;;3.82;84.81;100475.19;4502339;31;34599;-75
2022/11/29 02:12:22;;;;;;;41.13;16.02;;;;;;;4.07;83.96;100470.38;4515374;31;33427;-73
2022/11/29 02:15:14;;;;;;;43.38;18.75;;;;;;;3.75;85.10;100475.47;4477611;31;32107;-75
2022/11/29 02:18:07;;;;;;;42.35;15.82;;;;;;;3.79;84.96;100476.63;4503121;31;33951;-76
2022/11/29 02:20:34;;;;;;;42.72;15.57;;;;;;;3.76;85.58;100476.38;4499040;31;34297;-74
2022/11/29 02:23:17;;;;;;;42.95;16.37;;;;;;;4.04;83.66;100487.22;4511870;31;33435;-74
2022/11/29 02:26:00;;;;;;;38.75;16.67;;;;;;;3.84;84.59;100486.47;4498293;31;34493;-74
2022/11/29 02:29:05;;;;;;;38.33;15.52;;;;;;;3.99;83.67;100481.69;4508513;31;34650;-76
2022/11/29 02:31:51;;;;;;;38.33;16.00;;;;;;;3.78;85.54;100487.63;4513137;31;33690;-75
2022/11/29 02:34:51;;;;;;;41.65;16.67;;;;;;;3.89;84.45;100489.41;4512225;31;33503;-75
2022/11/29 02:37:40;;;;;;;38.60;16.80;;;;;;;4.04;84.23;100495.81;4512348;31;33754;-73
2022/11/29 02:40:14;;;;;;;37.45;15.55;;;;;;;4.11;83.38;100492.97;4513254;31;33943;-75
2022/11/29 02:43:11;;;;;;;40.45;16.77;;;;;;;3.78;84.50;100490.19;4506281;31;33604;-73
2022/11/29 02:45:45;;;;;;;41.85;16.60;;;;;;;3.97;83.94;100488.37;4506349;31;33357;-77
2022/11/29 02:48:35;;;;;;;39.17;16.12;;;;;;;3.93;84.09;100488.91;4507394;31;34449;-75
2022/11/29 02:51:11;;;;;;;39.00;15.77;;;;;;;4.07;83.18;100495.13;4508933;31;33738;-76
2022/11/29 02:53:59;;;;;;;39.03;15.57;;;;;;;4.04;83.19;100485.53;4500963;31;34518;-72
2022/11/29 02:56:45;;;;;;;43.92;16.80;;;;;;;4.20;82.67;100491.91;4513567;31;33321;-72
2022/11/29 02:59:37;;;;;;;47.00;18.85;;;;;;;4.09;83.36;100491.03;4511983;31;34376;-76
2022/11/29 03:02:58;;;;;;;38.75;16.33;;;;;;;4.10;82.82;100488.59;4512524;31;33777;-73
2022/11/29 03:05:51;;;;;;;39.17;17.60;;;;;;;3.93;82.83;100483.78;4489287;31;33762;-75
2022/11/29 03:08:27;;;;;;;37.58;15.48;;;;;;;3.83;84.18;100486.34;4507292;31;33426;-72
2022/11/29 03:11:06;;;;;;;38.65;14.98;;;;;;;4.48;81.44;100485.69;4516492;31;33315;-74
2022/11/29 03:13:56;;;;;;;38.13;15.43;;;;;;;4.04;82.64;100485.53;4509317;31;34014;-76
2022/11/29 03:16:37;;;;;;;42.20;15.40;;;;;;;4.07;82.66;100485.78;4515231;31;34414;-76
2022/11/29 03:19:35;;;;;;;36.90;14.35;;;;;;;4.55;80.97;100481.03;4504323;31;33254;-75
2022/11/29 03:22:09;;;;;;;34.05;13.88;;;;;;;4.51;80.79;100483.34;4516617;31;34615;-74
2022/11/29 03:25:05;;;;;;;32.78;13.35;;;;;;;4.36;80.34;100502.63;4516492;31;34685;-74
2022/11/29 03:27:54;;;;;;;32.83;14.90;;;;;;;4.52;80.10;100480.00;4503746;31;33821;-73
2022/11/29 03:30:21;;;;;;;33.50;13.50;;;;;;;4.35;80.57;100490.59;4513965;31;34248;-76
2022/11/29 03:33:22;;;;;;;32.17;13.07;;;;;;;4.67;78.70;100481.97;4504987;31;33337;-76
2022/11/29 03:36:07;;;;;;;31.08;13.77;;;;;;;4.25;80.53;100488.03;4512308;31;34823;-72
2022/11/29 03:38:44;;;;;;;36.58;14.45;;;;;;;4.34;79.87;100501.59;4503485;31;34100;-74
2022/11/29 03:41:27;;;;;;;32.28;13.93;;;;;;;4.33;79.34;100500.72;4502295;31;33329;-76
2022/11/29 03:44:17;;;;;;;29.17;13.23;;;;;;;4.18;80.22;100496.03;4501110;31;34729;-72
2022/11/29 03:47:05;;;;;;;31.80;13.75;;;;;;;4.64;78.12;100490.34;4512469;31;33549;-74
2022/11/29 03:49:51;;;;;;;27.20;12.85;;;;;;;4.53;78.63;100497.19;4503902;31;33741;-73
2022/11/29 03:52:55;;;;;;;29.45;13.43;;;;;;;4.24;79.35;100509.34;4512318;31;33460;-75
2022/11/29 03:55:47;;;;;;;32.90;13.88;;;;;;;4.45;78.35;100498.25;4514834;31;33865;-76
2022/11/29 03:58:39;;;;;;;28.40;12.45;;;;;;;4.26;79.10;100508.69;4513289;31;34438;-74
2022/11/29 04:01:15;;;;;;;30.00;13.77;;;;;;;4.03;80.54;100513.62;4508261;31;33826;-74
2022/11/29 04:04:18;;;;;;;32.38;13.90;;;;;;;4.07;80.77;100513.97;4513954;31;33391;-73
2022/11/29 04:07:16;;;;;;;31.33;14.32;;;;;;;4.22;79.21;100506.66;4448875;32;33750;-75
2022/11/29 04:10:08;;;;;;;27.55;13.60;;;;;;;4.03;80.45;100511.94;4515662;31;34706;-72
2022/11/29 04:13:00;;;;;;;30.58;14.13;;;;;;;4.36;78.91;100520.59;4503460;31;34504;-72
2022/11/29 04:15:52;;;;;;;31.42;13.93;;;;;;;4.09;80.37;100520.12;4509246;31;34116;-74
2022/11/29 04:18:38;;;;;;;32.60;14.13;;;;;;;4.26;79.49;100515.50;4513658;31;34187;-75
2022/11/29 04:21:25;;;;;;;28.17;13.02;;;;;;;3.92;80.74;100516.19;4513510;31;33953;-75
2022/11/29 04:24:17;;;;;;;31.87;14.32;;;;;;;4.00;80.97;100527.09;4503803;31;33831;-75
2022/11/29 04:26:50;;;;;;;28.35;13.65;;;;;;;4.17;79.95;100520.75;4508962;31;33678;-74
2022/11/29 04:29:36;;;;;;;26.27;12.52;;;;;;;4.24;80.13;100524.72;4509137;31;33729;-73
2022/11/29 04:32:18;;;;;;;29.30;14.02;;;;;;;4.05;80.41;100523.22;4500057;31;33979;-75
2022/11/29 04:35:04;;;;;;;27.02;13.30;;;;;;;4.05;80.20;100517.19;4510980;31;34628;-74
2022/11/29 04:37:43;;;;;;;30.25;13.70;;;;;;;4.12;80.24;100519.50;4511720;31;34297;-75
2022/11/29 04:40:44;;;;;;;28.35;13.52;;;;;;;4.01;80.67;100526.28;4502562;31;34256;-75
2022/11/29 04:43:43;;;;;;;35.33;15.52;;;;;;;3.88;81.26;100518.37;4502208;31;34531;-73
2022/11/29 04:46:21;;;;;;;32.80;14.77;;;;;;;3.84;81.83;100516.31;4508330;31;34170;-73
2022/11/29 04:49:06;;;;;;;29.33;14.38;;;;;;;4.12;79.83;100520.38;4509808;31;33322;-72
2022/11/29 04:52:05;;;;;;;30.92;14.87;;;;;;;4.00;80.80;100519.41;4503276;31;34576;-76
2022/11/29 04:54:39;;;;;;;38.35;16.00;;;;;;;3.89;81.21;100530.44;4499251;31;34039;-76
2022/11/29 04:57:15;;;;;;;32.00;15.43;;;;;;;3.78;81.96;100538.87;4499171;31;34409;-74
2022/11/29 04:59:52;;;;;;;29.73;14.15;;;;;;;4.33;79.82;100540.88;4507315;31;33484;-74
2022/11/29 05:02:33;;;;;;;31.20;14.87;;;;;;;4.55;79.37;100540.94;4507456;31;34206;-75
2022/11/29 05:05:32;;;;;;;33.78;14.45;;;;;;;4.09;80.12;100540.62;4491061;31;33437;-74
2022/11/29 05:08:33;;;;;;;35.35;15.85;;;;;;;4.18;80.53;100542.19;4499634;31;33882;-74
2022/11/29 05:11:09;;;;;;;36.03;16.60;;;;;;;3.48;83.74;100548.38;4499449;31;33629;-76
2022/11/29 05:14:04;;;;;;;35.20;15.20;;;;;;;3.68;83.05;100550.91;4511894;31;34526;-76
2022/11/29 05:16:46;;;;;;;36.75;17.08;;;;;;;3.68;82.92;100545.78;4505164;31;34056;-72
2022/11/29 05:19:45;;;;;;;37.10;15.77;;;;;;;3.92;82.49;100546.03;4513931;31;34296;-75
2022/11/29 05:22:33;;;;;;;32.78;14.75;;;;;;;3.92;81.88;100546.03;4504981;31;33276;-76
2022/11/29 05:25:38;;;;;;;34.47;14.55;;;;;;;4.11;80.82;100551.03;4502695;31;34089;-75
2022/11/29 05:28:09;;;;;;;36.85;15.93;;;;;;;4.05;81.15;100553.09;4513425;31;34249;-75
2022/11/29 05:30:48;;;;;;;36.20;15.98;;;;;;;4.05;81.49;100553.09;4510479;31;33849;-72
2022/11/29 05:33:38;;;;;;;38.40;15.75;;;;;;;4.18;80.43;100557.56;4514564;31;34245;-73
2022/11/29 05:36:23;;;;;;;36.80;16.15;;;;;;;4.22;80.58;100567.31;4514897;31;34592;-74
2022/11/29 05:38:59;;;;;;;36.38;16.67;;;;;;;4.18;80.55;100560.13;4511310;31;33717;-76
2022/11/29 05:41:26;;;;;;;;;;;;;;;3.92;81.63;100553.72;4509371;31;33827;-75
2022/11/29 05:44:12;;;;;;;33.42;15.73;;;;;;;4.01;81.10;100562.19;4513002;31;34138;-73
2022/11/29 05:46:58;;;;;;;33.55;15.63;;;;;;;3.79;81.97;100568.87;4515006;31;33507;-76
2022/11/29 05:49:35;;;;;;;35.75;15.38;;;;;;;3.54;83.21;100571.94;4508521;31;33652;-73
2022/11/29 05:52:30;;;;;;;33.53;15.90;;;;;;;3.32;84.19;100570.09;4508237;31;34505;-73
2022/11/29 05:55:13;;;;;;;29.77;13.90;;;;;;;4.11;80.98;100563.84;4512142;31;33997;-76
2022/11/29 05:57:57;;;;;;;30.05;14.60;;;;;;;3.55;81.67;100560.91;4508398;31;33814;-73
2022/11/29 06:00:30;;;;;;;29.65;14.05;;;;;;;3.45;82.70;100566.91;4506782;31;33809;-73
2022/11/29 06:03:23;;;;;;;32.67;14.73;;;;;;;3.76;81.64;100568.63;4511218;31;33601;-76
2022/11/29 06:06:05;;;;;;;30.92;13.82;;;;;;;3.73;81.49;100575.28;4511280;31;33274;-74
2022/11/29 06:08:43;;;;;;;32.42;14.25;;;;;;;3.85;80.97;100569.37;4504209;31;33762;-74
2022/11/29 06:11:26;;;;;;;30.35;13.73;;;;;;;3.70;81.30;100569.00;4502881;31;33424;-76
2022/11/29 06:13:56;;;;;;;35.95;15.45;;;;;;;3.86;81.19;100578.84;4513463;31;34489;-73
2022/11/29 06:16:32;;;;;;;30.88;13.57;;;;;;;3.80;81.25;100580.91;4514880;31;33273;-74
2022/11/29 06:19:37;;;;;;;32.95;15.18;;;;;;;4.12;79.57;100587.06;4513161;31;34173;-75
2022/11/29 06:22:30;;;;;;;33.80;14.30;;;;;;;3.98;79.89;100587.59;4507716;31;34384;-75
2022/11/29 06:25:09;;;;;;;31.45;13.15;;;;;;;4.35;79.00;100590.63;4511376;31;33921;-75
2022/11/29 06:27:56;;;;;;;36.47;15.35;;;;;;;3.84;81.05;100588.97;4512678;31;33032;-76
2022/11/29 06:30:46;;;;;;;28.55;13.82;;;;;;;4.17;79.68;100594.22;4511031;31;33658;-75
2022/11/29 06:33:27;;;;;;;33.85;15.60;;;;;;;4.09;79.55;100593.59;4508541;31;33708;-74
2022/11/29 06:36:15;;;;;;;35.03;14.40;;;;;;;4.29;78.91;100587.56;4506143;31;33961;-74
2022/11/29 06:38:43;;;;;;;33.03;14.02;;;;;;;4.48;78.17;100593.41;4506672;31;33188;-73
2022/11/29 06:41:19;;;;;;;30.37;14.75;;;;;;;3.99;79.64;100599.63;4510526;31;33466;-75
2022/11/29 06:43:47;;;;;;;29.27;13.30;;;;;;;4.50;77.75;100597.00;4509270;31;32259;-73
2022/11/29 06:46:31;;;;;;;32.10;13.77;;;;;;;4.52;77.66;100600.59;4500863;31;32204;-76
2022/11/29 06:49:10;;;;;;;32.17;13.77;;;;;;;4.29;78.66;100600.38;4507780;31;33966;-76
2022/11/29 06:51:48;;;;;;;31.25;13.65;;;;;;;4.49;78.28;100596.87;4512441;31;33813;-75
2022/11/29 06:54:43;;;;;;;35.28;13.25;;;;;;;4.34;79.08;100604.19;4510916;31;35181;-75
2022/11/29 06:57:30;;;;;;;;;;;;;;;4.68;77.90;100602.72;4479557;31;33565;-75
2022/11/29 07:00:25;;;;;;;37.92;17.15;;;;;;;4.49;78.62;100602.91;4510653;31;33090;-75
2022/11/29 07:03:20;;;;;;;34.08;16.27;;;;;;;4.58;78.16;100604.41;4506497;31;33717;-76
2022/11/29 07:05:48;;;;;;;30.20;15.80;;;;;;;4.13;79.13;100614.50;4509897;31;34439;-73
2022/11/29 07:08:18;;;;;;;33.17;16.58;;;;;;;4.12;79.31;100605.00;4512036;31;34569;-75
2022/11/29 07:10:48;;;;;;;32.13;15.55;;;;;;;3.95;80.22;100612.94;4515448;31;34223;-73
2022/11/29 07:13:17;;;;;;;35.13;16.37;;;;;;;4.17;79.07;100609.59;4508107;31;33658;-76
2022/11/29 07:16:18;;;;;;;29.25;13.48;;;;;;;3.84;80.67;100608.59;4507063;31;34773;-74
2022/11/29 07:19:11;;;;;;;30.80;13.75;;;;;;;3.83;80.97;100609.38;4509765;31;33539;-73
2022/11/29 07:21:55;;;;;;;31.05;14.13;;;;;;;3.81;81.80;100613.47;4503060;31;33282;-74
2022/11/29 07:24:45;;;;;;;38.80;16.10;;;;;;;3.73;81.46;100611.16;4499813;31;33932;-74
2022/11/29 07:27:19;;;;;;;34.63;15.10;;;;;;;3.54;82.24;100615.47;4513666;31;33939;-75
2022/11/29 07:30:01;;;;;;;32.92;14.10;;;;;;;3.91;80.79;100610.91;4505441;31;33843;-76
2022/11/29 07:32:53;;;;;;;32.75;14.40;;;;;;;4.05;82.81;100614.62;4509077;31;34127;-75
2022/11/29 07:35:51;;;;;;;41.25;16.17;;;;;;;4.31;79.97;100621.94;4515131;31;32679;-74
2022/11/29 07:38:34;;;;;;;30.92;15.05;;;;;;;4.16;80.35;100618.97;4508546;31;34691;-73
2022/11/29 07:41:30;;;;;;;36.53;15.77;;;;;;;3.94;81.18;100612.06;4507093;31;34509;-74
2022/11/29 07:44:10;;;;;;;38.03;16.52;;;;;;;4.01;80.27;100618.59;4499818;31;34084;-75
2022/11/29 07:46:38;;;;;;;30.67;15.25;;;;;;;4.46;78.99;100623.19;4510109;31;33821;-76
2022/11/29 07:49:09;;;;;;;34.45;16.00;;;;;;;4.07;80.46;100619.09;4515433;31;33405;-73
2022/11/29 07:51:36;;;;;;;35.17;16.75;;;;;;;4.43;79.24;100622.94;4503137;31;34319;-73
2022/11/29 07:54:04;;;;;;;35.63;16.12;;;;;;;4.13;80.09;100624.75;4504574;31;31807;-75
2022/11/29 07:56:32;;;;;;;35.90;15.77;;;;;;;4.56;78.99;100626.47;4510996;31;34530;-73
2022/11/29 07:58:59;;;;;;;39.38;16.27;;;;;;;4.50;78.64;100630.37;4508246;31;34139;-75
2022/11/29 08:01:27;;;;;;;32.03;16.02;;;;;;;4.01;80.72;100628.84;4512779;31;33660;-75
2022/11/29 08:03:54;;;;;;;40.53;16.05;;;;;;;4.37;79.58;100629.22;4510937;31;33311;-74
2022/11/29 08:06:24;;;;;;;34.20;16.77;;;;;;;4.55;79.57;100622.12;4515157;31;34588;-73
2022/11/29 08:08:51;;;;;;;40.53;15.75;;;;;;;4.48;79.35;100624.22;4502100;31;32335;-74
2022/11/29 08:11:19;;;;;;;30.60;14.70;;;;;;;4.17;80.05;100636.13;4503926;31;34142;-74
2022/11/29 08:13:46;;;;;;;34.58;15.43;;;;;;;4.68;78.73;100630.97;4510523;31;35218;-75
2022/11/29 08:16:17;;;;;;;33.65;14.87;;;;;;;4.87;77.49;100627.31;4502139;31;34512;-75
2022/11/29 08:18:45;;;;;;;36.47;15.45;;;;;;;4.44;78.53;100627.31;4515177;31;34688;-75
2022/11/29 08:21:16;;;;;;;33.25;15.10;;;;;;;4.91;77.03;100632.81;4512842;31;33862;-72
2022/11/29 08:23:45;;;;;;;32.85;14.48;;;;;;;4.46;78.50;100627.41;4513351;31;33451;-75
2022/11/29 08:26:14;;;;;;;30.65;13.95;;;;;;;4.79;77.24;100625.78;4508287;31;33710;-74
2022/11/29 08:28:42;;;;;;;31.30;15.02;;;;;;;4.90;77.16;100624.97;4509235;31;34122;-74
2022/11/29 08:31:11;;;;;;;32.40;14.52;;;;;;;4.86;77.30;100618.69;4509698;31;33647;-72
2022/11/29 08:33:41;;;;;;;31.40;15.82;;;;;;;4.39;79.45;100618.31;4511905;31;35335;-76
2022/11/29 08:36:11;;;;;;;39.40;16.52;;;;;;;4.37;79.30;100619.87;4507497;31;33903;-73
2022/11/29 08:38:39;;;;;;;42.72;20.20;;;;;;;4.72;78.32;100621.84;4506187;31;33794;-76
2022/11/29 08:41:08;;;;;;;44.67;23.25;;;;;;;4.80;78.07;100625.91;4505426;31;33927;-74
2022/11/29 08:43:35;;;;;;;45.08;22.45;;;;;;;4.90;77.20;100630.13;4512606;31;33392;-75
2022/11/29 08:46:03;;;;;;;38.45;17.27;;;;;;;4.52;78.49;100621.13;4516443;31;34524;-74
2022/11/29 08:48:31;;;;;;;43.58;20.55;;;;;;;4.61;78.30;100625.19;4514509;31;34333;-74
2022/11/29 08:50:58;;;;;;;37.25;17.37;;;;;;;4.62;77.81;100627.00;4509694;31;34664;-74
2022/11/29 08:53:42;;;;;;;38.75;19.95;;;;;;;4.82;77.22;100626.94;4507627;31;33362;-74
2022/11/29 08:56:14;;;;;;;39.10;19.55;;;;;;;4.87;77.14;100620.50;4514159;31;34158;-75
2022/11/29 08:59:05;;;;;;;40.55;19.42;;;;;;;4.68;77.66;100617.25;4502818;31;33962;-76
2022/11/29 09:01:32;;;;;;;37.03;19.42;;;;;;;4.75;76.94;100619.50;4503560;31;33062;-77
2022/11/29 09:04:04;;;;;;;40.75;19.15;;;;;;;4.94;75.74;100621.88;4503704;31;34049;-75
2022/11/29 09:06:38;;;;;;;38.10;17.83;;;;;;;4.88;76.41;100622.28;4514148;31;34278;-74
2022/11/29 09:09:06;;;;;;;34.38;18.05;;;;;;;5.36;74.62;100623.50;4503639;31;33604;-76
2022/11/29 09:11:34;;;;;;;32.78;17.58;;;;;;;5.10;75.62;100618.91;4498095;31;33567;-76
2022/11/29 09:14:05;;;;;;;38.67;18.30;;;;;;;5.03;75.50;100616.59;4502727;31;34269;-74
2022/11/29 09:16:34;;;;;;;32.35;16.52;;;;;;;5.11;75.30;100615.53;4514932;31;33084;-75
2022/11/29 09:19:03;;;;;;;32.75;15.38;;;;;;;4.99;75.33;100623.16;4503670;31;33956;-73
2022/11/29 09:21:33;;;;;;;30.98;16.27;;;;;;;5.07;74.75;100609.25;4515853;31;33625;-74
2022/11/29 09:24:04;;;;;;;29.52;15.07;;;;;;;4.96;74.73;100616.87;4514170;31;33261;-75
2022/11/29 09:26:34;;;;;;;31.33;14.95;;;;;;;5.37;73.60;100608.97;4508678;31;33668;-76
2022/11/29 09:29:03;;;;;;;31.75;16.00;;;;;;;5.17;74.07;100603.19;4516134;31;33800;-74
2022/11/29 09:31:31;;;;;;;33.78;16.92;;;;;;;5.43;73.20;100601.78;4508043;31;33885;-75
2022/11/29 09:33:58;;;;;;;34.22;15.98;;;;;;;5.59;72.51;100604.75;4506800;31;33406;-73
2022/11/29 09:36:28;;;;;;;39.38;16.52;;;;;;;5.98;71.43;100607.72;4502559;31;33883;-75
2022/11/29 09:38:56;;;;;;;32.45;15.65;;;;;;;5.55;72.74;100600.16;4508626;31;34684;-74
2022/11/29 09:41:55;;;;;;;36.33;16.42;;;;;;;5.81;71.70;100604.69;4508927;31;33887;-73
2022/11/29 09:44:50;;;;;;;33.70;16.12;;;;;;;5.37;73.96;100606.41;4512569;31;33448;-74
2022/11/29 09:47:41;;;;;;;31.65;15.57;;;;;;;5.14;75.29;100608.09;4510332;31;34375;-76
2022/11/29 09:50:20;;;;;;;35.67;16.08;;;;;;;5.05;75.32;100604.78;4504681;31;33879;-72
2022/11/29 09:53:11;;;;;;;37.10;16.62;;;;;;;5.39;74.30;100603.22;4508592;31;34563;-76
2022/11/29 09:56:04;;;;;;;34.60;17.33;;;;;;;5.70;72.75;100588.47;4508800;31;33150;-75
2022/11/29 09:58:42;;;;;;;39.58;18.33;;;;;;;5.72;73.01;100593.75;4499427;31;33601;-75
2022/11/29 10:01:18;;;;;;;40.67;17.98;;;;;;;5.56;73.69;100586.50;4487821;31;33631;-75
2022/11/29 10:03:50;;;;;;;34.67;17.17;;;;;;;5.90;72.21;100581.38;4504249;31;34530;-76
2022/11/29 10:06:23;;;;;;;37.28;16.55;;;;;;;6.01;71.70;100582.25;4513254;31;33266;-75
2022/11/29 10:09:04;;;;;;;36.88;17.30;;;;;;;5.92;71.90;100584.97;4504239;31;33896;-76
2022/11/29 10:11:37;;;;;;;32.97;16.08;;;;;;;6.06;70.61;100576.63;4506832;31;33818;-74
2022/11/29 10:14:21;;;;;;;36.20;16.33;;;;;;;5.90;71.06;100573.66;4506729;31;34578;-74
2022/11/29 10:16:51;;;;;;;34.42;17.73;;;;;;;5.78;72.10;100567.59;4513913;31;34388;-72
2022/11/29 10:19:32;;;;;;;37.35;17.35;;;;;;;5.61;71.89;100572.34;4506093;31;34702;-71
2022/11/29 10:22:05;;;;;;;36.38;16.83;;;;;;;5.61;72.74;100563.75;4507067;31;34082;-74
2022/11/29 10:24:33;;;;;;;36.97;17.23;;;;;;;5.39;73.65;100562.09;4512452;31;33680;-73
2022/11/29 10:27:00;;;;;;;34.90;16.98;;;;;;;5.78;70.55;100570.19;4516601;31;34277;-75
2022/11/29 10:29:28;;;;;;;34.70;17.65;;;;;;;6.05;70.09;100562.00;4504091;31;34602;-74
2022/11/29 10:31:58;;;;;;;34.13;16.85;;;;;;;5.63;71.72;100557.03;4514776;31;33449;-74
2022/11/29 10:34:25;;;;;;;33.35;17.15;;;;;;;5.80;74.31;100566.03;4505347;31;34426;-73
2022/11/29 10:37:01;;;;;;;36.17;16.85;;;;;;;5.81;71.99;100558.44;4500285;31;33246;-75
2022/11/29 10:39:36;;;;;;;35.88;16.87;;;;;;;6.26;69.87;100565.28;4505856;31;34850;-76
2022/11/29 10:42:05;;;;;;;;;;;;;;;6.20;69.15;100574.19;4512615;31;34610;-74
2022/11/29 10:44:32;;;;;;;35.95;16.35;;;;;;;5.81;70.32;100563.56;4513399;31;33771;-73
2022/11/29 10:47:02;;;;;;;34.08;17.42;;;;;;;6.06;70.70;100563.78;4506426;31;33478;-76
2022/11/29 10:49:39;;;;;;;36.95;16.27;;;;;;;5.96;70.00;100566.44;4508282;31;33878;-74
2022/11/29 10:52:17;;;;;;;33.53;16.27;;;;;;;5.69;71.01;100567.78;4516363;31;34636;-74
2022/11/29 10:54:45;;;;;;;34.28;15.77;;;;;;;5.89;69.90;100561.56;4512038;31;33230;-75
2022/11/29 10:57:16;;;;;;;34.10;16.55;;;;;;;5.83;69.83;100561.12;4509750;31;33624;-72
2022/11/29 11:00:03;;;;;;;34.47;16.08;;;;;;;6.17;70.07;100561.12;4517037;31;33103;-74
2022/11/29 11:02:31;;;;;;;34.97;16.12;;;;;;;6.06;69.03;100558.63;4516480;31;33318;-72
2022/11/29 11:04:59;;;;;;;34.80;16.90;;;;;;;6.06;71.36;100550.91;4513532;31;33558;-72
2022/11/29 11:07:33;;;;;;;30.83;14.27;;;;;;;6.24;71.52;100560.81;4512141;31;33266;-74
2022/11/29 11:10:19;;;;;;;36.67;17.75;;;;;;;5.87;76.88;100555.44;4506581;31;33784;-73
2022/11/29 11:13:03;;;;;;;37.33;16.33;;;;;;;6.70;68.89;100551.28;4511274;31;34683;-73
2022/11/29 11:15:31;;;;;;;32.33;15.27;;;;;;;6.27;69.32;100556.75;4505291;31;33570;-75
2022/11/29 11:18:03;;;;;;;35.90;17.77;;;;;;;6.47;68.22;100559.91;4509221;31;33175;-76
2022/11/29 11:20:36;;;;;;;36.55;17.50;;;;;;;5.89;70.03;100557.34;4506991;31;34547;-73
2022/11/29 11:23:05;;;;;;;37.55;16.85;;;;;;;6.13;69.00;100556.53;4505968;31;32467;-73
2022/11/29 11:25:36;;;;;;;37.83;18.55;;;;;;;5.89;70.17;100562.50;4506650;31;32885;-74
2022/11/29 11:28:14;;;;;;;36.25;17.62;;;;;;;5.95;69.97;100551.81;4504080;31;33283;-74
2022/11/29 11:31:09;;;;;;;31.55;17.37;;;;;;;5.69;70.61;100557.50;4508643;31;33584;-74
2022/11/29 11:33:44;;;;;;;41.00;18.30;;;;;;;5.89;70.62;100566.72;4496463;31;34502;-76
2022/11/29 11:36:11;;;;;;;;;;;;;;;6.07;69.33;100557.84;4505489;31;33455;-72
2022/11/29 11:39:07;;;;;;;39.13;16.90;;;;;;;5.84;69.79;100562.94;4506633;31;33040;-74
2022/11/29 11:44:39;;;;;;;35.47;18.10;;;;;;;5.72;69.75;100562.91;4506114;31;34764;-74
2022/11/29 11:47:18;;;;;;;37.65;17.25;;;;;;;6.03;69.16;100566.13;4513018;31;34072;-73
2022/11/29 11:49:53;;;;;;;35.38;16.50;;;;;;;5.78;70.21;100568.50;4511691;31;32513;-73
2022/11/29 11:52:24;;;;;;;38.50;16.80;;;;;;;6.03;69.27;100568.72;4502764;31;33728;-72
2022/11/29 11:54:57;;;;;;;37.65;16.45;;;;;;;5.65;70.93;100561.50;4502757;31;34288;-73
2022/11/29 11:57:25;;;;;;;35.25;17.12;;;;;;;6.42;68.24;100566.41;4501158;31;33289;-72
2022/11/29 11:59:55;;;;;;;37.25;18.05;;;;;;;6.43;68.27;100563.94;4502744;31;33148;-74
2022/11/29 12:02:29;;;;;;;34.20;16.98;;;;;;;6.22;69.27;100564.91;4507350;31;34510;-75
2022/11/29 12:04:59;;;;;;;33.53;16.90;;;;;;;6.18;69.19;100562.91;4500076;31;33618;-74
2022/11/29 12:07:34;;;;;;;32.95;16.10;;;;;;;6.13;69.62;100567.72;4487276;31;35327;-75
2022/11/29 12:10:25;;;;;;;39.35;17.12;;;;;;;6.15;69.94;100565.25;4502156;31;34153;-73
2022/11/29 12:12:54;;;;;;;31.58;15.70;;;;;;;6.22;68.73;100558.13;4503069;31;33769;-73
2022/11/29 12:15:29;;;;;;;37.83;18.08;;;;;;;6.55;68.26;100558.81;4505443;31;33800;-75